sensor_id;sensor_type;location;lat;lon;timestamp;P1;durP1;ratioP1;P2;durP2;ratioP2
5819;SDS011;2936;47.348;9.640;2024-01-27T00:02:15;2.45;;;2.35;;
5819;SDS011;2936;47.348;9.640;2024-01-27T00:04:43;2.53;;;2.42;;
5819;SDS011;2936;47.348;9.640;2024-01-27T00:07:11;2.33;;;2.22;;
5819;SDS011;2936;47.348;9.640;2024-01-27T00:09:40;2.75;;;2.65;;
5819;SDS011;2936;47.348;9.640;2024-01-27T00:12:08;3.33;;;2.83;;
5819;SDS011;2936;47.348;9.640;2024-01-27T00:14:37;12.50;;;2.92;;
5819;SDS011;2936;47.348;9.640;2024-01-27T00:17:05;3.40;;;3.20;;
5819;SDS011;2936;47.348;9.640;2024-01-27T00:19:33;3.25;;;3.15;;
5819;SDS011;2936;47.348;9.640;2024-01-27T00:22:01;3.50;;;3.20;;
5819;SDS011;2936;47.348;9.640;2024-01-27T00:24:28;3.25;;;3.03;;
5819;SDS011;2936;47.348;9.640;2024-01-27T00:26:58;4.00;;;3.75;;
5819;SDS011;2936;47.348;9.640;2024-01-27T00:29:25;3.78;;;3.00;;
5819;SDS011;2936;47.348;9.640;2024-01-27T00:31:53;3.20;;;2.90;;
5819;SDS011;2936;47.348;9.640;2024-01-27T00:34:21;4.00;;;3.80;;
5819;SDS011;2936;47.348;9.640;2024-01-27T00:36:49;3.15;;;3.05;;
5819;SDS011;2936;47.348;9.640;2024-01-27T00:39:17;4.30;;;4.03;;
5819;SDS011;2936;47.348;9.640;2024-01-27T00:41:45;3.20;;;3.00;;
5819;SDS011;2936;47.348;9.640;2024-01-27T00:44:14;3.78;;;3.53;;
5819;SDS011;2936;47.348;9.640;2024-01-27T00:46:43;4.38;;;4.07;;
5819;SDS011;2936;47.348;9.640;2024-01-27T00:49:11;3.42;;;3.33;;
5819;SDS011;2936;47.348;9.640;2024-01-27T00:51:39;14.00;;;3.70;;
5819;SDS011;2936;47.348;9.640;2024-01-27T00:54:06;3.83;;;3.63;;
5819;SDS011;2936;47.348;9.640;2024-01-27T00:56:34;3.20;;;3.10;;
5819;SDS011;2936;47.348;9.640;2024-01-27T00:59:01;4.15;;;3.92;;
5819;SDS011;2936;47.348;9.640;2024-01-27T01:01:30;4.80;;;4.40;;
5819;SDS011;2936;47.348;9.640;2024-01-27T01:03:58;3.65;;;3.50;;
5819;SDS011;2936;47.348;9.640;2024-01-27T01:06:26;4.60;;;4.30;;
5819;SDS011;2936;47.348;9.640;2024-01-27T01:08:54;3.60;;;3.50;;
5819;SDS011;2936;47.348;9.640;2024-01-27T01:11:22;3.67;;;3.17;;
5819;SDS011;2936;47.348;9.640;2024-01-27T01:13:50;3.05;;;2.95;;
5819;SDS011;2936;47.348;9.640;2024-01-27T01:16:18;3.83;;;3.65;;
5819;SDS011;2936;47.348;9.640;2024-01-27T01:18:47;3.30;;;3.10;;
5819;SDS011;2936;47.348;9.640;2024-01-27T01:21:15;3.10;;;3.00;;
5819;SDS011;2936;47.348;9.640;2024-01-27T01:23:42;3.22;;;3.05;;
5819;SDS011;2936;47.348;9.640;2024-01-27T01:26:10;3.67;;;3.47;;
5819;SDS011;2936;47.348;9.640;2024-01-27T01:28:39;3.90;;;3.70;;
5819;SDS011;2936;47.348;9.640;2024-01-27T01:31:06;3.30;;;3.20;;
5819;SDS011;2936;47.348;9.640;2024-01-27T01:33:34;3.33;;;3.22;;
5819;SDS011;2936;47.348;9.640;2024-01-27T01:36:03;3.50;;;3.30;;
5819;SDS011;2936;47.348;9.640;2024-01-27T01:38:31;3.40;;;3.20;;
5819;SDS011;2936;47.348;9.640;2024-01-27T01:40:59;3.03;;;2.92;;
5819;SDS011;2936;47.348;9.640;2024-01-27T01:43:26;3.05;;;2.85;;
5819;SDS011;2936;47.348;9.640;2024-01-27T01:45:54;2.55;;;2.45;;
5819;SDS011;2936;47.348;9.640;2024-01-27T01:48:22;2.78;;;2.58;;
5819;SDS011;2936;47.348;9.640;2024-01-27T01:50:49;3.92;;;3.40;;
5819;SDS011;2936;47.348;9.640;2024-01-27T01:53:20;2.70;;;2.60;;
5819;SDS011;2936;47.348;9.640;2024-01-27T01:55:48;3.30;;;3.20;;
5819;SDS011;2936;47.348;9.640;2024-01-27T01:58:16;3.42;;;3.22;;
5819;SDS011;2936;47.348;9.640;2024-01-27T02:00:44;3.35;;;3.25;;
5819;SDS011;2936;47.348;9.640;2024-01-27T02:03:12;6.30;;;3.97;;
5819;SDS011;2936;47.348;9.640;2024-01-27T02:05:40;3.85;;;3.50;;
5819;SDS011;2936;47.348;9.640;2024-01-27T02:08:08;3.63;;;3.25;;
5819;SDS011;2936;47.348;9.640;2024-01-27T02:10:37;3.95;;;3.67;;
5819;SDS011;2936;47.348;9.640;2024-01-27T02:13:14;3.20;;;3.03;;
5819;SDS011;2936;47.348;9.640;2024-01-27T02:15:43;3.40;;;3.20;;
5819;SDS011;2936;47.348;9.640;2024-01-27T02:18:11;10.43;;;3.40;;
5819;SDS011;2936;47.348;9.640;2024-01-27T02:20:39;3.80;;;3.60;;
5819;SDS011;2936;47.348;9.640;2024-01-27T02:23:07;3.35;;;3.15;;
5819;SDS011;2936;47.348;9.640;2024-01-27T02:25:36;3.03;;;2.92;;
5819;SDS011;2936;47.348;9.640;2024-01-27T02:28:04;3.25;;;3.05;;
5819;SDS011;2936;47.348;9.640;2024-01-27T02:30:31;5.97;;;3.80;;
5819;SDS011;2936;47.348;9.640;2024-01-27T02:32:59;2.67;;;2.58;;
5819;SDS011;2936;47.348;9.640;2024-01-27T02:35:26;2.90;;;2.80;;
5819;SDS011;2936;47.348;9.640;2024-01-27T02:37:54;3.38;;;3.17;;
5819;SDS011;2936;47.348;9.640;2024-01-27T02:40:22;3.55;;;3.05;;
5819;SDS011;2936;47.348;9.640;2024-01-27T02:42:52;3.30;;;3.20;;
5819;SDS011;2936;47.348;9.640;2024-01-27T02:45:20;4.32;;;2.85;;
5819;SDS011;2936;47.348;9.640;2024-01-27T02:47:47;3.55;;;3.25;;
5819;SDS011;2936;47.348;9.640;2024-01-27T02:50:15;3.90;;;3.10;;
5819;SDS011;2936;47.348;9.640;2024-01-27T02:52:43;3.55;;;3.35;;
5819;SDS011;2936;47.348;9.640;2024-01-27T02:55:10;4.80;;;3.80;;
5819;SDS011;2936;47.348;9.640;2024-01-27T02:57:39;4.82;;;2.97;;
5819;SDS011;2936;47.348;9.640;2024-01-27T03:00:10;3.70;;;3.50;;
5819;SDS011;2936;47.348;9.640;2024-01-27T03:02:37;3.85;;;3.33;;
5819;SDS011;2936;47.348;9.640;2024-01-27T03:05:05;3.45;;;3.28;;
5819;SDS011;2936;47.348;9.640;2024-01-27T03:07:33;5.57;;;3.55;;
5819;SDS011;2936;47.348;9.640;2024-01-27T03:10:01;3.45;;;3.25;;
5819;SDS011;2936;47.348;9.640;2024-01-27T03:12:29;3.60;;;3.40;;
5819;SDS011;2936;47.348;9.640;2024-01-27T03:14:58;3.25;;;3.05;;
5819;SDS011;2936;47.348;9.640;2024-01-27T03:17:33;3.20;;;3.10;;
5819;SDS011;2936;47.348;9.640;2024-01-27T03:20:00;8.18;;;3.58;;
5819;SDS011;2936;47.348;9.640;2024-01-27T03:22:28;2.90;;;2.80;;
5819;SDS011;2936;47.348;9.640;2024-01-27T03:24:56;3.30;;;3.08;;
5819;SDS011;2936;47.348;9.640;2024-01-27T03:27:23;3.13;;;3.03;;
5819;SDS011;2936;47.348;9.640;2024-01-27T03:29:51;2.70;;;2.60;;
5819;SDS011;2936;47.348;9.640;2024-01-27T03:32:19;3.20;;;3.10;;
5819;SDS011;2936;47.348;9.640;2024-01-27T03:34:48;2.80;;;2.70;;
5819;SDS011;2936;47.348;9.640;2024-01-27T03:37:16;3.08;;;2.97;;
5819;SDS011;2936;47.348;9.640;2024-01-27T03:39:44;3.42;;;3.20;;
5819;SDS011;2936;47.348;9.640;2024-01-27T03:42:12;2.90;;;2.80;;
5819;SDS011;2936;47.348;9.640;2024-01-27T03:44:40;3.08;;;2.70;;
5819;SDS011;2936;47.348;9.640;2024-01-27T03:47:08;3.00;;;2.90;;
5819;SDS011;2936;47.348;9.640;2024-01-27T03:49:35;3.33;;;2.85;;
5819;SDS011;2936;47.348;9.640;2024-01-27T03:52:06;3.15;;;3.05;;
5819;SDS011;2936;47.348;9.640;2024-01-27T03:54:33;3.15;;;2.95;;
5819;SDS011;2936;47.348;9.640;2024-01-27T03:57:01;5.03;;;3.08;;
5819;SDS011;2936;47.348;9.640;2024-01-27T03:59:29;7.03;;;3.53;;
5819;SDS011;2936;47.348;9.640;2024-01-27T04:01:57;3.58;;;3.47;;
5819;SDS011;2936;47.348;9.640;2024-01-27T04:04:25;3.20;;;3.10;;
5819;SDS011;2936;47.348;9.640;2024-01-27T04:06:53;2.88;;;2.78;;
5819;SDS011;2936;47.348;9.640;2024-01-27T04:09:23;3.60;;;3.40;;
5819;SDS011;2936;47.348;9.640;2024-01-27T04:11:50;4.05;;;3.70;;
5819;SDS011;2936;47.348;9.640;2024-01-27T04:14:18;3.25;;;3.15;;
5819;SDS011;2936;47.348;9.640;2024-01-27T04:16:46;3.40;;;3.22;;
5819;SDS011;2936;47.348;9.640;2024-01-27T04:19:14;3.22;;;3.13;;
5819;SDS011;2936;47.348;9.640;2024-01-27T04:21:41;3.30;;;3.10;;
5819;SDS011;2936;47.348;9.640;2024-01-27T04:24:09;3.55;;;3.45;;
5819;SDS011;2936;47.348;9.640;2024-01-27T04:26:38;3.30;;;3.10;;
5819;SDS011;2936;47.348;9.640;2024-01-27T04:29:05;3.03;;;2.92;;
5819;SDS011;2936;47.348;9.640;2024-01-27T04:31:39;3.03;;;2.92;;
5819;SDS011;2936;47.348;9.640;2024-01-27T04:34:07;3.10;;;2.97;;
5819;SDS011;2936;47.348;9.640;2024-01-27T04:36:35;3.97;;;3.63;;
5819;SDS011;2936;47.348;9.640;2024-01-27T04:39:04;3.00;;;2.90;;
5819;SDS011;2936;47.348;9.640;2024-01-27T04:41:32;3.85;;;3.65;;
5819;SDS011;2936;47.348;9.640;2024-01-27T04:44:01;10.05;;;3.55;;
5819;SDS011;2936;47.348;9.640;2024-01-27T04:46:28;3.22;;;3.03;;
5819;SDS011;2936;47.348;9.640;2024-01-27T04:48:56;4.45;;;2.80;;
5819;SDS011;2936;47.348;9.640;2024-01-27T04:51:23;4.10;;;3.80;;
5819;SDS011;2936;47.348;9.640;2024-01-27T04:53:51;4.43;;;4.07;;
5819;SDS011;2936;47.348;9.640;2024-01-27T04:56:19;4.05;;;3.80;;
5819;SDS011;2936;47.348;9.640;2024-01-27T04:58:46;6.53;;;4.45;;
5819;SDS011;2936;47.348;9.640;2024-01-27T05:01:17;4.10;;;3.90;;
5819;SDS011;2936;47.348;9.640;2024-01-27T05:03:45;3.92;;;3.70;;
5819;SDS011;2936;47.348;9.640;2024-01-27T05:06:12;3.53;;;3.33;;
5819;SDS011;2936;47.348;9.640;2024-01-27T05:08:40;4.07;;;3.30;;
5819;SDS011;2936;47.348;9.640;2024-01-27T05:11:07;5.40;;;3.45;;
5819;SDS011;2936;47.348;9.640;2024-01-27T05:13:35;3.60;;;3.30;;
5819;SDS011;2936;47.348;9.640;2024-01-27T05:16:04;3.30;;;3.00;;
5819;SDS011;2936;47.348;9.640;2024-01-27T05:18:33;4.20;;;3.17;;
5819;SDS011;2936;47.348;9.640;2024-01-27T05:21:01;6.13;;;3.83;;
5819;SDS011;2936;47.348;9.640;2024-01-27T05:23:29;6.80;;;3.13;;
5819;SDS011;2936;47.348;9.640;2024-01-27T05:25:57;3.35;;;3.15;;
5819;SDS011;2936;47.348;9.640;2024-01-27T05:28:24;3.50;;;3.28;;
5819;SDS011;2936;47.348;9.640;2024-01-27T05:30:52;6.53;;;3.75;;
5819;SDS011;2936;47.348;9.640;2024-01-27T05:33:19;3.50;;;3.40;;
5819;SDS011;2936;47.348;9.640;2024-01-27T05:35:48;10.20;;;4.22;;
5819;SDS011;2936;47.348;9.640;2024-01-27T05:38:16;2.90;;;2.80;;
5819;SDS011;2936;47.348;9.640;2024-01-27T05:40:44;4.00;;;3.67;;
5819;SDS011;2936;47.348;9.640;2024-01-27T05:43:12;3.85;;;3.55;;
5819;SDS011;2936;47.348;9.640;2024-01-27T05:45:39;3.25;;;3.15;;
5819;SDS011;2936;47.348;9.640;2024-01-27T05:48:07;3.38;;;3.17;;
5819;SDS011;2936;47.348;9.640;2024-01-27T05:50:35;5.00;;;4.03;;
5819;SDS011;2936;47.348;9.640;2024-01-27T05:53:06;3.42;;;3.33;;
5819;SDS011;2936;47.348;9.640;2024-01-27T05:55:34;4.43;;;4.03;;
5819;SDS011;2936;47.348;9.640;2024-01-27T05:58:02;5.90;;;4.18;;
5819;SDS011;2936;47.348;9.640;2024-01-27T06:00:29;3.70;;;3.50;;
5819;SDS011;2936;47.348;9.640;2024-01-27T06:02:57;4.18;;;3.97;;
5819;SDS011;2936;47.348;9.640;2024-01-27T06:05:25;5.10;;;4.05;;
5819;SDS011;2936;47.348;9.640;2024-01-27T06:07:53;7.57;;;4.35;;
5819;SDS011;2936;47.348;9.640;2024-01-27T06:10:22;4.47;;;4.15;;
5819;SDS011;2936;47.348;9.640;2024-01-27T06:12:50;3.47;;;3.28;;
5819;SDS011;2936;47.348;9.640;2024-01-27T06:15:17;5.07;;;4.65;;
5819;SDS011;2936;47.348;9.640;2024-01-27T06:17:46;4.70;;;4.40;;
5819;SDS011;2936;47.348;9.640;2024-01-27T06:20:14;3.92;;;3.83;;
5819;SDS011;2936;47.348;9.640;2024-01-27T06:22:43;5.32;;;4.82;;
5819;SDS011;2936;47.348;9.640;2024-01-27T06:25:11;5.78;;;5.47;;
5819;SDS011;2936;47.348;9.640;2024-01-27T06:27:40;6.15;;;5.43;;
5819;SDS011;2936;47.348;9.640;2024-01-27T06:30:08;14.02;;;4.72;;
5819;SDS011;2936;47.348;9.640;2024-01-27T06:32:36;15.35;;;5.50;;
5819;SDS011;2936;47.348;9.640;2024-01-27T06:35:04;7.05;;;5.50;;
5819;SDS011;2936;47.348;9.640;2024-01-27T06:37:32;4.80;;;4.40;;
5819;SDS011;2936;47.348;9.640;2024-01-27T06:40:00;5.93;;;5.50;;
5819;SDS011;2936;47.348;9.640;2024-01-27T06:42:29;5.78;;;5.28;;
5819;SDS011;2936;47.348;9.640;2024-01-27T06:44:58;5.68;;;4.80;;
5819;SDS011;2936;47.348;9.640;2024-01-27T06:47:26;4.53;;;4.32;;
5819;SDS011;2936;47.348;9.640;2024-01-27T06:49:54;5.03;;;4.50;;
5819;SDS011;2936;47.348;9.640;2024-01-27T06:52:22;35.83;;;5.40;;
5819;SDS011;2936;47.348;9.640;2024-01-27T06:54:50;5.85;;;4.60;;
5819;SDS011;2936;47.348;9.640;2024-01-27T06:57:18;5.00;;;4.68;;
5819;SDS011;2936;47.348;9.640;2024-01-27T06:59:46;7.43;;;5.20;;
5819;SDS011;2936;47.348;9.640;2024-01-27T07:02:19;4.68;;;4.45;;
5819;SDS011;2936;47.348;9.640;2024-01-27T07:04:49;4.00;;;3.80;;
5819;SDS011;2936;47.348;9.640;2024-01-27T07:07:17;4.82;;;4.45;;
5819;SDS011;2936;47.348;9.640;2024-01-27T07:09:46;5.47;;;4.53;;
5819;SDS011;2936;47.348;9.640;2024-01-27T07:12:14;6.82;;;5.03;;
5819;SDS011;2936;47.348;9.640;2024-01-27T07:14:42;4.97;;;4.68;;
5819;SDS011;2936;47.348;9.640;2024-01-27T07:17:09;4.68;;;4.38;;
5819;SDS011;2936;47.348;9.640;2024-01-27T07:19:39;8.15;;;5.50;;
5819;SDS011;2936;47.348;9.640;2024-01-27T07:22:06;8.00;;;4.50;;
5819;SDS011;2936;47.348;9.640;2024-01-27T07:24:34;5.47;;;4.57;;
5819;SDS011;2936;47.348;9.640;2024-01-27T07:27:02;4.55;;;4.22;;
5819;SDS011;2936;47.348;9.640;2024-01-27T07:29:30;8.27;;;5.00;;
5819;SDS011;2936;47.348;9.640;2024-01-27T07:31:57;5.57;;;5.10;;
5819;SDS011;2936;47.348;9.640;2024-01-27T07:34:25;4.97;;;4.72;;
5819;SDS011;2936;47.348;9.640;2024-01-27T07:36:54;5.47;;;5.10;;
5819;SDS011;2936;47.348;9.640;2024-01-27T07:39:22;8.68;;;4.78;;
5819;SDS011;2936;47.348;9.640;2024-01-27T07:41:49;6.65;;;5.45;;
5819;SDS011;2936;47.348;9.640;2024-01-27T07:44:17;17.27;;;5.93;;
5819;SDS011;2936;47.348;9.640;2024-01-27T07:46:45;6.03;;;5.57;;
5819;SDS011;2936;47.348;9.640;2024-01-27T07:49:17;6.15;;;5.75;;
5819;SDS011;2936;47.348;9.640;2024-01-27T07:51:44;9.30;;;5.30;;
5819;SDS011;2936;47.348;9.640;2024-01-27T07:54:13;10.63;;;7.32;;
5819;SDS011;2936;47.348;9.640;2024-01-27T07:56:41;7.03;;;6.32;;
5819;SDS011;2936;47.348;9.640;2024-01-27T07:59:09;6.78;;;6.18;;
5819;SDS011;2936;47.348;9.640;2024-01-27T08:01:39;6.25;;;5.75;;
5819;SDS011;2936;47.348;9.640;2024-01-27T08:04:07;7.43;;;6.38;;
5819;SDS011;2936;47.348;9.640;2024-01-27T08:06:45;5.80;;;5.40;;
5819;SDS011;2936;47.348;9.640;2024-01-27T08:09:14;6.20;;;5.72;;
5819;SDS011;2936;47.348;9.640;2024-01-27T08:11:42;6.70;;;6.10;;
5819;SDS011;2936;47.348;9.640;2024-01-27T08:14:11;7.07;;;6.57;;
5819;SDS011;2936;47.348;9.640;2024-01-27T08:16:39;6.20;;;5.80;;
5819;SDS011;2936;47.348;9.640;2024-01-27T08:19:06;11.65;;;5.88;;
5819;SDS011;2936;47.348;9.640;2024-01-27T08:21:34;6.50;;;6.00;;
5819;SDS011;2936;47.348;9.640;2024-01-27T08:24:01;5.97;;;5.47;;
5819;SDS011;2936;47.348;9.640;2024-01-27T08:26:30;7.93;;;7.13;;
5819;SDS011;2936;47.348;9.640;2024-01-27T08:28:57;11.65;;;7.55;;
5819;SDS011;2936;47.348;9.640;2024-01-27T08:31:25;7.18;;;6.22;;
5819;SDS011;2936;47.348;9.640;2024-01-27T08:33:53;9.10;;;6.35;;
5819;SDS011;2936;47.348;9.640;2024-01-27T08:36:21;7.45;;;6.60;;
5819;SDS011;2936;47.348;9.640;2024-01-27T08:38:48;7.05;;;6.60;;
5819;SDS011;2936;47.348;9.640;2024-01-27T08:41:16;11.10;;;7.82;;
5819;SDS011;2936;47.348;9.640;2024-01-27T08:43:45;8.93;;;7.05;;
5819;SDS011;2936;47.348;9.640;2024-01-27T08:46:13;9.20;;;6.88;;
5819;SDS011;2936;47.348;9.640;2024-01-27T08:48:42;12.32;;;7.47;;
5819;SDS011;2936;47.348;9.640;2024-01-27T08:51:10;8.05;;;7.25;;
5819;SDS011;2936;47.348;9.640;2024-01-27T08:53:38;7.55;;;6.68;;
5819;SDS011;2936;47.348;9.640;2024-01-27T08:56:06;8.45;;;7.47;;
5819;SDS011;2936;47.348;9.640;2024-01-27T08:58:34;8.38;;;7.38;;
5819;SDS011;2936;47.348;9.640;2024-01-27T09:01:04;8.75;;;6.97;;
5819;SDS011;2936;47.348;9.640;2024-01-27T09:03:34;8.60;;;7.30;;
5819;SDS011;2936;47.348;9.640;2024-01-27T09:06:02;7.65;;;6.95;;
5819;SDS011;2936;47.348;9.640;2024-01-27T09:08:30;7.43;;;6.72;;
5819;SDS011;2936;47.348;9.640;2024-01-27T09:10:57;9.35;;;7.00;;
5819;SDS011;2936;47.348;9.640;2024-01-27T09:13:25;7.07;;;6.47;;
5819;SDS011;2936;47.348;9.640;2024-01-27T09:15:52;7.30;;;6.70;;
5819;SDS011;2936;47.348;9.640;2024-01-27T09:18:21;10.93;;;7.13;;
5819;SDS011;2936;47.348;9.640;2024-01-27T09:20:49;7.53;;;6.63;;
5819;SDS011;2936;47.348;9.640;2024-01-27T09:23:16;8.75;;;7.65;;
5819;SDS011;2936;47.348;9.640;2024-01-27T09:25:44;8.02;;;7.28;;
5819;SDS011;2936;47.348;9.640;2024-01-27T09:28:11;9.02;;;7.90;;
5819;SDS011;2936;47.348;9.640;2024-01-27T09:30:41;8.68;;;7.35;;
5819;SDS011;2936;47.348;9.640;2024-01-27T09:33:09;8.75;;;7.78;;
5819;SDS011;2936;47.348;9.640;2024-01-27T09:35:39;7.63;;;6.93;;
5819;SDS011;2936;47.348;9.640;2024-01-27T09:38:06;6.78;;;6.38;;
5819;SDS011;2936;47.348;9.640;2024-01-27T09:40:37;9.23;;;6.70;;
5819;SDS011;2936;47.348;9.640;2024-01-27T09:43:04;11.10;;;7.47;;
5819;SDS011;2936;47.348;9.640;2024-01-27T09:45:32;6.68;;;6.00;;
5819;SDS011;2936;47.348;9.640;2024-01-27T09:48:00;6.95;;;6.45;;
5819;SDS011;2936;47.348;9.640;2024-01-27T09:50:28;9.27;;;7.65;;
5819;SDS011;2936;47.348;9.640;2024-01-27T09:52:57;6.90;;;6.20;;
5819;SDS011;2936;47.348;9.640;2024-01-27T09:55:25;10.00;;;7.07;;
5819;SDS011;2936;47.348;9.640;2024-01-27T09:57:53;7.30;;;6.55;;
5819;SDS011;2936;47.348;9.640;2024-01-27T10:00:21;15.85;;;5.93;;
5819;SDS011;2936;47.348;9.640;2024-01-27T10:02:49;8.15;;;6.63;;
5819;SDS011;2936;47.348;9.640;2024-01-27T10:05:17;6.35;;;5.80;;
5819;SDS011;2936;47.348;9.640;2024-01-27T10:07:45;6.97;;;6.40;;
5819;SDS011;2936;47.348;9.640;2024-01-27T10:10:15;13.63;;;7.20;;
5819;SDS011;2936;47.348;9.640;2024-01-27T10:12:42;6.80;;;6.20;;
5819;SDS011;2936;47.348;9.640;2024-01-27T10:18:03;8.05;;;5.68;;
5819;SDS011;2936;47.348;9.640;2024-01-27T10:20:32;8.32;;;5.93;;
5819;SDS011;2936;47.348;9.640;2024-01-27T10:23:09;6.22;;;5.68;;
5819;SDS011;2936;47.348;9.640;2024-01-27T10:25:39;5.88;;;5.45;;
5819;SDS011;2936;47.348;9.640;2024-01-27T10:28:07;7.03;;;6.32;;
5819;SDS011;2936;47.348;9.640;2024-01-27T10:30:35;5.57;;;5.28;;
5819;SDS011;2936;47.348;9.640;2024-01-27T10:33:03;10.50;;;5.82;;
5819;SDS011;2936;47.348;9.640;2024-01-27T10:35:30;6.40;;;5.65;;
5819;SDS011;2936;47.348;9.640;2024-01-27T10:37:58;6.43;;;5.53;;
5819;SDS011;2936;47.348;9.640;2024-01-27T10:40:25;5.68;;;5.18;;
5819;SDS011;2936;47.348;9.640;2024-01-27T10:42:58;6.63;;;5.85;;
5819;SDS011;2936;47.348;9.640;2024-01-27T10:45:28;5.28;;;4.85;;
5819;SDS011;2936;47.348;9.640;2024-01-27T10:47:58;6.10;;;5.60;;
5819;SDS011;2936;47.348;9.640;2024-01-27T10:50:27;5.53;;;5.13;;
5819;SDS011;2936;47.348;9.640;2024-01-27T10:52:54;5.40;;;5.00;;
5819;SDS011;2936;47.348;9.640;2024-01-27T10:55:25;5.82;;;5.32;;
5819;SDS011;2936;47.348;9.640;2024-01-27T10:57:53;5.00;;;4.55;;
5819;SDS011;2936;47.348;9.640;2024-01-27T11:00:26;5.10;;;4.70;;
5819;SDS011;2936;47.348;9.640;2024-01-27T11:02:54;5.15;;;4.95;;
5819;SDS011;2936;47.348;9.640;2024-01-27T11:05:23;5.68;;;5.28;;
5819;SDS011;2936;47.348;9.640;2024-01-27T11:07:51;5.55;;;5.15;;
5819;SDS011;2936;47.348;9.640;2024-01-27T11:10:19;5.50;;;5.10;;
5819;SDS011;2936;47.348;9.640;2024-01-27T11:12:48;5.40;;;4.90;;
5819;SDS011;2936;47.348;9.640;2024-01-27T11:15:16;5.60;;;4.78;;
5819;SDS011;2936;47.348;9.640;2024-01-27T11:17:45;7.30;;;6.80;;
5819;SDS011;2936;47.348;9.640;2024-01-27T11:20:13;5.07;;;4.78;;
5819;SDS011;2936;47.348;9.640;2024-01-27T11:22:42;5.55;;;5.10;;
5819;SDS011;2936;47.348;9.640;2024-01-27T11:25:15;5.07;;;4.68;;
5819;SDS011;2936;47.348;9.640;2024-01-27T11:27:44;4.80;;;4.55;;
5819;SDS011;2936;47.348;9.640;2024-01-27T11:30:27;5.60;;;5.18;;
5819;SDS011;2936;47.348;9.640;2024-01-27T11:32:57;4.85;;;4.47;;
5819;SDS011;2936;47.348;9.640;2024-01-27T11:35:25;5.30;;;5.00;;
5819;SDS011;2936;47.348;9.640;2024-01-27T11:37:53;5.00;;;4.70;;
5819;SDS011;2936;47.348;9.640;2024-01-27T11:40:21;7.30;;;5.35;;
5819;SDS011;2936;47.348;9.640;2024-01-27T11:42:53;6.15;;;5.70;;
5819;SDS011;2936;47.348;9.640;2024-01-27T11:45:22;5.13;;;4.82;;
5819;SDS011;2936;47.348;9.640;2024-01-27T11:47:50;4.95;;;4.65;;
5819;SDS011;2936;47.348;9.640;2024-01-27T11:50:22;5.53;;;5.00;;
5819;SDS011;2936;47.348;9.640;2024-01-27T11:52:49;10.18;;;5.22;;
5819;SDS011;2936;47.348;9.640;2024-01-27T11:55:17;11.23;;;4.82;;
5819;SDS011;2936;47.348;9.640;2024-01-27T11:57:44;5.15;;;4.75;;
5819;SDS011;2936;47.348;9.640;2024-01-27T12:00:12;5.07;;;4.78;;
5819;SDS011;2936;47.348;9.640;2024-01-27T12:02:40;5.10;;;4.70;;
5819;SDS011;2936;47.348;9.640;2024-01-27T12:05:08;4.88;;;4.55;;
5819;SDS011;2936;47.348;9.640;2024-01-27T12:07:37;4.28;;;4.07;;
5819;SDS011;2936;47.348;9.640;2024-01-27T12:10:06;4.68;;;4.47;;
5819;SDS011;2936;47.348;9.640;2024-01-27T12:12:35;4.40;;;4.20;;
5819;SDS011;2936;47.348;9.640;2024-01-27T12:15:02;4.13;;;3.70;;
5819;SDS011;2936;47.348;9.640;2024-01-27T12:17:36;5.00;;;4.63;;
5819;SDS011;2936;47.348;9.640;2024-01-27T12:20:04;5.72;;;4.32;;
5819;SDS011;2936;47.348;9.640;2024-01-27T12:22:43;5.00;;;4.60;;
5819;SDS011;2936;47.348;9.640;2024-01-27T12:25:11;4.35;;;4.13;;
5819;SDS011;2936;47.348;9.640;2024-01-27T12:27:39;13.05;;;4.40;;
5819;SDS011;2936;47.348;9.640;2024-01-27T12:30:07;4.30;;;4.00;;
5819;SDS011;2936;47.348;9.640;2024-01-27T12:32:35;4.18;;;3.97;;
5819;SDS011;2936;47.348;9.640;2024-01-27T12:35:06;4.25;;;4.05;;
5819;SDS011;2936;47.348;9.640;2024-01-27T12:37:34;4.32;;;4.00;;
5819;SDS011;2936;47.348;9.640;2024-01-27T12:40:06;4.25;;;4.00;;
5819;SDS011;2936;47.348;9.640;2024-01-27T12:42:43;5.95;;;3.45;;
5819;SDS011;2936;47.348;9.640;2024-01-27T12:45:11;5.00;;;4.60;;
5819;SDS011;2936;47.348;9.640;2024-01-27T12:47:39;4.50;;;4.20;;
5819;SDS011;2936;47.348;9.640;2024-01-27T12:50:06;5.85;;;5.00;;
5819;SDS011;2936;47.348;9.640;2024-01-27T12:52:35;4.80;;;4.50;;
5819;SDS011;2936;47.348;9.640;2024-01-27T12:55:07;5.30;;;4.47;;
5819;SDS011;2936;47.348;9.640;2024-01-27T12:57:36;4.75;;;4.35;;
5819;SDS011;2936;47.348;9.640;2024-01-27T13:00:05;4.82;;;4.22;;
5819;SDS011;2936;47.348;9.640;2024-01-27T13:02:35;5.40;;;4.93;;
5819;SDS011;2936;47.348;9.640;2024-01-27T13:05:03;4.38;;;4.13;;
5819;SDS011;2936;47.348;9.640;2024-01-27T13:07:30;4.07;;;3.90;;
5819;SDS011;2936;47.348;9.640;2024-01-27T13:09:58;3.90;;;3.60;;
5819;SDS011;2936;47.348;9.640;2024-01-27T13:12:28;3.92;;;3.63;;
5819;SDS011;2936;47.348;9.640;2024-01-27T13:14:55;4.75;;;4.30;;
5819;SDS011;2936;47.348;9.640;2024-01-27T13:17:23;3.55;;;3.38;;
5819;SDS011;2936;47.348;9.640;2024-01-27T13:19:59;3.60;;;3.40;;
5819;SDS011;2936;47.348;9.640;2024-01-27T13:22:27;4.38;;;4.07;;
5819;SDS011;2936;47.348;9.640;2024-01-27T13:24:54;4.55;;;4.25;;
5819;SDS011;2936;47.348;9.640;2024-01-27T13:27:23;3.90;;;3.70;;
5819;SDS011;2936;47.348;9.640;2024-01-27T13:29:52;4.43;;;4.22;;
5819;SDS011;2936;47.348;9.640;2024-01-27T13:32:19;17.40;;;4.82;;
5819;SDS011;2936;47.348;9.640;2024-01-27T13:34:46;3.88;;;3.38;;
5819;SDS011;2936;47.348;9.640;2024-01-27T13:37:14;3.70;;;3.50;;
5819;SDS011;2936;47.348;9.640;2024-01-27T13:39:42;3.72;;;3.42;;
5819;SDS011;2936;47.348;9.640;2024-01-27T13:42:10;3.78;;;3.55;;
5819;SDS011;2936;47.348;9.640;2024-01-27T13:44:38;5.60;;;3.88;;
5819;SDS011;2936;47.348;9.640;2024-01-27T13:47:08;3.17;;;3.08;;
5819;SDS011;2936;47.348;9.640;2024-01-27T13:49:36;2.95;;;2.85;;
5819;SDS011;2936;47.348;9.640;2024-01-27T13:52:05;2.90;;;2.80;;
5819;SDS011;2936;47.348;9.640;2024-01-27T13:54:33;3.40;;;3.20;;
5819;SDS011;2936;47.348;9.640;2024-01-27T13:57:01;3.17;;;3.00;;
5819;SDS011;2936;47.348;9.640;2024-01-27T13:59:29;3.85;;;3.70;;
5819;SDS011;2936;47.348;9.640;2024-01-27T14:01:57;3.88;;;3.30;;
5819;SDS011;2936;47.348;9.640;2024-01-27T14:04:26;4.20;;;3.70;;
5819;SDS011;2936;47.348;9.640;2024-01-27T14:06:55;5.35;;;3.78;;
5819;SDS011;2936;47.348;9.640;2024-01-27T14:09:23;3.28;;;3.17;;
5819;SDS011;2936;47.348;9.640;2024-01-27T14:11:52;4.07;;;3.78;;
5819;SDS011;2936;47.348;9.640;2024-01-27T14:14:22;3.60;;;3.50;;
5819;SDS011;2936;47.348;9.640;2024-01-27T14:16:49;7.47;;;4.85;;
5819;SDS011;2936;47.348;9.640;2024-01-27T14:19:17;4.78;;;4.35;;
5819;SDS011;2936;47.348;9.640;2024-01-27T14:21:46;5.18;;;4.88;;
5819;SDS011;2936;47.348;9.640;2024-01-27T14:24:14;4.90;;;4.53;;
5819;SDS011;2936;47.348;9.640;2024-01-27T14:26:42;5.40;;;4.90;;
5819;SDS011;2936;47.348;9.640;2024-01-27T14:29:09;7.53;;;4.57;;
5819;SDS011;2936;47.348;9.640;2024-01-27T14:31:37;5.40;;;4.88;;
5819;SDS011;2936;47.348;9.640;2024-01-27T14:34:04;5.10;;;4.63;;
5819;SDS011;2936;47.348;9.640;2024-01-27T14:36:32;5.60;;;5.13;;
5819;SDS011;2936;47.348;9.640;2024-01-27T14:39:02;5.57;;;4.75;;
5819;SDS011;2936;47.348;9.640;2024-01-27T14:41:30;8.77;;;4.75;;
5819;SDS011;2936;47.348;9.640;2024-01-27T14:43:57;5.45;;;4.90;;
5819;SDS011;2936;47.348;9.640;2024-01-27T14:46:25;4.90;;;4.40;;
5819;SDS011;2936;47.348;9.640;2024-01-27T14:48:52;4.22;;;3.80;;
5819;SDS011;2936;47.348;9.640;2024-01-27T14:51:20;4.47;;;4.20;;
5819;SDS011;2936;47.348;9.640;2024-01-27T14:53:47;4.28;;;3.97;;
5819;SDS011;2936;47.348;9.640;2024-01-27T14:56:17;4.70;;;4.32;;
5819;SDS011;2936;47.348;9.640;2024-01-27T14:58:45;9.27;;;3.67;;
5819;SDS011;2936;47.348;9.640;2024-01-27T15:01:16;4.45;;;4.13;;
5819;SDS011;2936;47.348;9.640;2024-01-27T15:03:45;4.65;;;4.35;;
5819;SDS011;2936;47.348;9.640;2024-01-27T15:06:12;4.53;;;4.10;;
5819;SDS011;2936;47.348;9.640;2024-01-27T15:08:40;3.78;;;3.67;;
5819;SDS011;2936;47.348;9.640;2024-01-27T15:11:10;3.78;;;3.58;;
5819;SDS011;2936;47.348;9.640;2024-01-27T15:13:40;3.90;;;3.70;;
5819;SDS011;2936;47.348;9.640;2024-01-27T15:16:07;5.32;;;4.30;;
5819;SDS011;2936;47.348;9.640;2024-01-27T15:18:35;3.83;;;3.63;;
5819;SDS011;2936;47.348;9.640;2024-01-27T15:21:07;4.82;;;4.50;;
5819;SDS011;2936;47.348;9.640;2024-01-27T15:23:35;4.63;;;4.43;;
5819;SDS011;2936;47.348;9.640;2024-01-27T15:26:03;4.40;;;4.10;;